sensor_id;sensor_type;location;lat;lon;timestamp;P1;durP1;ratioP1;P2;durP2;ratioP2
70908;SDS011;58554;52.006;5.926;2023-06-05T00:00:46;6.43;;;3.10;;
70908;SDS011;58554;52.006;5.926;2023-06-05T00:03:13;6.37;;;3.27;;
70908;SDS011;58554;52.006;5.926;2023-06-05T00:05:39;5.28;;;2.95;;
70908;SDS011;58554;52.006;5.926;2023-06-05T00:08:08;7.18;;;3.63;;
70908;SDS011;58554;52.006;5.926;2023-06-05T00:10:35;6.80;;;3.10;;
70908;SDS011;58554;52.006;5.926;2023-06-05T00:13:01;5.57;;;3.60;;
70908;SDS011;58554;52.006;5.926;2023-06-05T00:15:28;6.47;;;3.50;;
70908;SDS011;58554;52.006;5.926;2023-06-05T00:17:54;6.65;;;3.70;;
70908;SDS011;58554;52.006;5.926;2023-06-05T00:20:21;6.65;;;3.70;;
70908;SDS011;58554;52.006;5.926;2023-06-05T00:22:47;6.27;;;3.50;;
70908;SDS011;58554;52.006;5.926;2023-06-05T00:25:17;6.57;;;3.80;;
70908;SDS011;58554;52.006;5.926;2023-06-05T00:27:43;5.18;;;3.20;;
70908;SDS011;58554;52.006;5.926;2023-06-05T00:30:10;6.25;;;3.60;;
70908;SDS011;58554;52.006;5.926;2023-06-05T00:32:38;7.38;;;3.85;;
70908;SDS011;58554;52.006;5.926;2023-06-05T00:35:06;7.75;;;3.63;;
70908;SDS011;58554;52.006;5.926;2023-06-05T00:37:34;5.97;;;3.70;;
70908;SDS011;58554;52.006;5.926;2023-06-05T00:40:00;6.38;;;3.20;;
70908;SDS011;58554;52.006;5.926;2023-06-05T00:42:30;6.63;;;3.63;;
70908;SDS011;58554;52.006;5.926;2023-06-05T00:44:56;7.10;;;3.80;;
70908;SDS011;58554;52.006;5.926;2023-06-05T00:47:23;6.90;;;3.50;;
70908;SDS011;58554;52.006;5.926;2023-06-05T00:49:50;7.85;;;3.63;;
70908;SDS011;58554;52.006;5.926;2023-06-05T00:52:16;6.13;;;3.33;;
70908;SDS011;58554;52.006;5.926;2023-06-05T00:54:43;7.70;;;3.53;;
70908;SDS011;58554;52.006;5.926;2023-06-05T00:57:10;5.88;;;3.42;;
70908;SDS011;58554;52.006;5.926;2023-06-05T00:59:39;8.38;;;3.55;;
70908;SDS011;58554;52.006;5.926;2023-06-05T01:02:06;7.15;;;3.97;;
70908;SDS011;58554;52.006;5.926;2023-06-05T01:04:33;8.20;;;3.53;;
70908;SDS011;58554;52.006;5.926;2023-06-05T01:07:00;6.97;;;3.97;;
70908;SDS011;58554;52.006;5.926;2023-06-05T01:09:26;6.73;;;4.20;;
70908;SDS011;58554;52.006;5.926;2023-06-05T01:11:56;5.82;;;3.25;;
70908;SDS011;58554;52.006;5.926;2023-06-05T01:14:30;6.30;;;3.47;;
70908;SDS011;58554;52.006;5.926;2023-06-05T01:17:04;6.80;;;3.87;;
70908;SDS011;58554;52.006;5.926;2023-06-05T01:19:33;7.40;;;3.70;;
70908;SDS011;58554;52.006;5.926;2023-06-05T01:22:01;7.27;;;3.60;;
70908;SDS011;58554;52.006;5.926;2023-06-05T01:24:30;7.60;;;3.95;;
70908;SDS011;58554;52.006;5.926;2023-06-05T01:27:07;8.07;;;3.60;;
70908;SDS011;58554;52.006;5.926;2023-06-05T01:29:43;7.22;;;3.83;;
70908;SDS011;58554;52.006;5.926;2023-06-05T01:32:21;7.80;;;3.95;;
70908;SDS011;58554;52.006;5.926;2023-06-05T01:34:58;6.70;;;4.03;;
70908;SDS011;58554;52.006;5.926;2023-06-05T01:37:25;6.80;;;3.87;;
70908;SDS011;58554;52.006;5.926;2023-06-05T01:39:57;8.03;;;4.20;;
70908;SDS011;58554;52.006;5.926;2023-06-05T01:42:25;7.57;;;3.92;;
70908;SDS011;58554;52.006;5.926;2023-06-05T01:44:53;6.73;;;3.63;;
70908;SDS011;58554;52.006;5.926;2023-06-05T01:47:20;6.77;;;3.60;;
70908;SDS011;58554;52.006;5.926;2023-06-05T01:49:47;8.35;;;3.83;;
70908;SDS011;58554;52.006;5.926;2023-06-05T01:52:14;7.43;;;3.50;;
70908;SDS011;58554;52.006;5.926;2023-06-05T01:54:40;7.50;;;3.97;;
70908;SDS011;58554;52.006;5.926;2023-06-05T01:57:10;8.13;;;4.10;;
70908;SDS011;58554;52.006;5.926;2023-06-05T01:59:36;7.30;;;3.70;;
70908;SDS011;58554;52.006;5.926;2023-06-05T02:02:03;7.10;;;4.05;;
70908;SDS011;58554;52.006;5.926;2023-06-05T02:04:29;7.22;;;3.88;;
70908;SDS011;58554;52.006;5.926;2023-06-05T02:06:56;7.10;;;3.73;;
70908;SDS011;58554;52.006;5.926;2023-06-05T02:09:22;8.37;;;4.40;;
70908;SDS011;58554;52.006;5.926;2023-06-05T02:11:49;9.07;;;4.00;;
70908;SDS011;58554;52.006;5.926;2023-06-05T02:14:18;6.60;;;3.77;;
70908;SDS011;58554;52.006;5.926;2023-06-05T02:16:44;7.27;;;4.17;;
70908;SDS011;58554;52.006;5.926;2023-06-05T02:19:11;8.00;;;4.30;;
70908;SDS011;58554;52.006;5.926;2023-06-05T02:21:38;8.32;;;4.55;;
70908;SDS011;58554;52.006;5.926;2023-06-05T02:24:04;8.07;;;3.97;;
70908;SDS011;58554;52.006;5.926;2023-06-05T02:26:31;7.03;;;4.10;;
70908;SDS011;58554;52.006;5.926;2023-06-05T02:28:58;8.53;;;4.27;;
70908;SDS011;58554;52.006;5.926;2023-06-05T02:31:28;8.80;;;4.47;;
70908;SDS011;58554;52.006;5.926;2023-06-05T02:33:54;9.30;;;4.33;;
70908;SDS011;58554;52.006;5.926;2023-06-05T02:36:22;8.40;;;4.10;;
70908;SDS011;58554;52.006;5.926;2023-06-05T02:38:49;7.88;;;4.35;;
70908;SDS011;58554;52.006;5.926;2023-06-05T02:41:16;9.15;;;4.40;;
70908;SDS011;58554;52.006;5.926;2023-06-05T02:43:42;9.17;;;4.27;;
70908;SDS011;58554;52.006;5.926;2023-06-05T02:46:09;8.10;;;4.03;;
70908;SDS011;58554;52.006;5.926;2023-06-05T02:48:39;10.23;;;4.73;;
70908;SDS011;58554;52.006;5.926;2023-06-05T02:51:05;9.65;;;4.50;;
70908;SDS011;58554;52.006;5.926;2023-06-05T02:53:32;8.30;;;4.30;;
70908;SDS011;58554;52.006;5.926;2023-06-05T02:55:58;8.80;;;4.47;;
70908;SDS011;58554;52.006;5.926;2023-06-05T02:58:25;9.20;;;4.35;;
70908;SDS011;58554;52.006;5.926;2023-06-05T03:00:51;7.78;;;4.22;;
70908;SDS011;58554;52.006;5.926;2023-06-05T03:03:18;9.18;;;4.57;;
70908;SDS011;58554;52.006;5.926;2023-06-05T03:05:47;9.13;;;4.30;;
70908;SDS011;58554;52.006;5.926;2023-06-05T03:08:13;8.30;;;4.60;;
70908;SDS011;58554;52.006;5.926;2023-06-05T03:10:40;8.38;;;4.60;;
70908;SDS011;58554;52.006;5.926;2023-06-05T03:13:07;10.50;;;4.75;;
70908;SDS011;58554;52.006;5.926;2023-06-05T03:15:33;7.90;;;4.53;;
70908;SDS011;58554;52.006;5.926;2023-06-05T03:18:00;10.23;;;4.17;;
70908;SDS011;58554;52.006;5.926;2023-06-05T03:20:26;9.27;;;4.80;;
70908;SDS011;58554;52.006;5.926;2023-06-05T03:22:56;10.97;;;4.73;;
70908;SDS011;58554;52.006;5.926;2023-06-05T03:25:22;9.50;;;4.83;;
70908;SDS011;58554;52.006;5.926;2023-06-05T03:27:49;9.07;;;4.35;;
70908;SDS011;58554;52.006;5.926;2023-06-05T03:30:15;9.57;;;4.63;;
70908;SDS011;58554;52.006;5.926;2023-06-05T03:32:42;10.82;;;4.53;;
70908;SDS011;58554;52.006;5.926;2023-06-05T03:35:08;9.60;;;4.45;;
70908;SDS011;58554;52.006;5.926;2023-06-05T03:37:35;10.23;;;4.75;;
70908;SDS011;58554;52.006;5.926;2023-06-05T03:40:05;10.00;;;4.97;;
70908;SDS011;58554;52.006;5.926;2023-06-05T03:42:34;11.93;;;4.97;;
70908;SDS011;58554;52.006;5.926;2023-06-05T03:45:00;8.97;;;4.60;;
70908;SDS011;58554;52.006;5.926;2023-06-05T03:47:27;9.38;;;4.72;;
70908;SDS011;58554;52.006;5.926;2023-06-05T03:49:53;8.85;;;4.60;;
70908;SDS011;58554;52.006;5.926;2023-06-05T03:52:20;8.90;;;4.83;;
70908;SDS011;58554;52.006;5.926;2023-06-05T03:54:46;8.90;;;4.63;;
70908;SDS011;58554;52.006;5.926;2023-06-05T03:57:15;9.93;;;4.95;;
70908;SDS011;58554;52.006;5.926;2023-06-05T03:59:42;10.07;;;4.67;;
70908;SDS011;58554;52.006;5.926;2023-06-05T04:02:08;9.93;;;5.17;;
70908;SDS011;58554;52.006;5.926;2023-06-05T04:04:35;11.00;;;4.87;;
70908;SDS011;58554;52.006;5.926;2023-06-05T04:07:01;10.10;;;4.60;;
70908;SDS011;58554;52.006;5.926;2023-06-05T04:09:28;9.60;;;4.95;;
70908;SDS011;58554;52.006;5.926;2023-06-05T04:11:55;10.10;;;5.40;;
70908;SDS011;58554;52.006;5.926;2023-06-05T04:14:24;9.73;;;4.47;;
70908;SDS011;58554;52.006;5.926;2023-06-05T04:16:51;10.30;;;4.80;;
70908;SDS011;58554;52.006;5.926;2023-06-05T04:19:17;10.63;;;4.75;;
70908;SDS011;58554;52.006;5.926;2023-06-05T04:21:45;11.73;;;5.23;;
70908;SDS011;58554;52.006;5.926;2023-06-05T04:24:11;10.83;;;4.67;;
70908;SDS011;58554;52.006;5.926;2023-06-05T04:26:38;11.40;;;5.20;;
70908;SDS011;58554;52.006;5.926;2023-06-05T04:29:06;9.95;;;4.75;;
70908;SDS011;58554;52.006;5.926;2023-06-05T04:31:36;13.00;;;4.75;;
70908;SDS011;58554;52.006;5.926;2023-06-05T04:34:02;11.88;;;5.32;;
70908;SDS011;58554;52.006;5.926;2023-06-05T04:36:29;10.87;;;4.70;;
70908;SDS011;58554;52.006;5.926;2023-06-05T04:38:55;11.60;;;4.83;;
70908;SDS011;58554;52.006;5.926;2023-06-05T04:41:22;10.83;;;5.10;;
70908;SDS011;58554;52.006;5.926;2023-06-05T04:43:48;14.60;;;5.20;;
70908;SDS011;58554;52.006;5.926;2023-06-05T04:46:15;10.53;;;4.90;;
70908;SDS011;58554;52.006;5.926;2023-06-05T04:48:44;10.25;;;4.72;;
70908;SDS011;58554;52.006;5.926;2023-06-05T04:51:11;10.97;;;4.73;;
70908;SDS011;58554;52.006;5.926;2023-06-05T04:53:37;13.53;;;4.90;;
70908;SDS011;58554;52.006;5.926;2023-06-05T04:56:04;12.07;;;5.40;;
70908;SDS011;58554;52.006;5.926;2023-06-05T04:58:30;9.68;;;4.53;;
70908;SDS011;58554;52.006;5.926;2023-06-05T05:00:57;11.67;;;5.00;;
70908;SDS011;58554;52.006;5.926;2023-06-05T05:03:24;10.55;;;4.72;;
70908;SDS011;58554;52.006;5.926;2023-06-05T05:05:53;11.13;;;5.20;;
70908;SDS011;58554;52.006;5.926;2023-06-05T05:08:19;11.70;;;5.40;;
70908;SDS011;58554;52.006;5.926;2023-06-05T05:10:46;10.77;;;4.90;;
70908;SDS011;58554;52.006;5.926;2023-06-05T05:13:13;11.40;;;5.13;;
70908;SDS011;58554;52.006;5.926;2023-06-05T05:15:39;9.23;;;4.53;;
70908;SDS011;58554;52.006;5.926;2023-06-05T05:18:06;10.87;;;5.13;;
70908;SDS011;58554;52.006;5.926;2023-06-05T05:20:32;10.05;;;4.88;;
70908;SDS011;58554;52.006;5.926;2023-06-05T05:23:01;9.63;;;4.60;;
70908;SDS011;58554;52.006;5.926;2023-06-05T05:25:28;13.40;;;4.63;;
70908;SDS011;58554;52.006;5.926;2023-06-05T05:27:54;9.88;;;4.65;;
70908;SDS011;58554;52.006;5.926;2023-06-05T05:30:21;12.13;;;5.03;;
70908;SDS011;58554;52.006;5.926;2023-06-05T05:32:47;13.07;;;4.93;;
70908;SDS011;58554;52.006;5.926;2023-06-05T05:35:14;11.63;;;5.00;;
70908;SDS011;58554;52.006;5.926;2023-06-05T05:37:41;11.03;;;5.43;;
70908;SDS011;58554;52.006;5.926;2023-06-05T05:40:11;12.73;;;5.07;;
70908;SDS011;58554;52.006;5.926;2023-06-05T05:42:38;11.97;;;5.00;;
70908;SDS011;58554;52.006;5.926;2023-06-05T05:45:05;10.85;;;5.13;;
70908;SDS011;58554;52.006;5.926;2023-06-05T05:47:34;9.95;;;4.35;;
70908;SDS011;58554;52.006;5.926;2023-06-05T05:50:00;10.00;;;4.80;;
70908;SDS011;58554;52.006;5.926;2023-06-05T05:52:27;10.70;;;4.40;;
70908;SDS011;58554;52.006;5.926;2023-06-05T05:54:53;11.13;;;5.03;;
70908;SDS011;58554;52.006;5.926;2023-06-05T05:57:23;9.70;;;5.00;;
70908;SDS011;58554;52.006;5.926;2023-06-05T05:59:49;13.17;;;5.20;;
70908;SDS011;58554;52.006;5.926;2023-06-05T06:02:16;12.18;;;4.82;;
70908;SDS011;58554;52.006;5.926;2023-06-05T06:04:43;12.60;;;5.20;;
70908;SDS011;58554;52.006;5.926;2023-06-05T06:07:10;12.97;;;4.53;;
70908;SDS011;58554;52.006;5.926;2023-06-05T06:09:37;10.43;;;4.63;;
70908;SDS011;58554;52.006;5.926;2023-06-05T06:12:04;10.77;;;4.82;;
70908;SDS011;58554;52.006;5.926;2023-06-05T06:14:34;9.68;;;4.70;;
70908;SDS011;58554;52.006;5.926;2023-06-05T06:17:01;10.43;;;4.55;;
70908;SDS011;58554;52.006;5.926;2023-06-05T06:19:28;10.27;;;4.53;;
70908;SDS011;58554;52.006;5.926;2023-06-05T06:21:55;13.20;;;5.07;;
70908;SDS011;58554;52.006;5.926;2023-06-05T06:24:22;9.20;;;4.40;;
70908;SDS011;58554;52.006;5.926;2023-06-05T06:26:48;10.07;;;4.72;;
70908;SDS011;58554;52.006;5.926;2023-06-05T06:29:17;10.03;;;4.57;;
70908;SDS011;58554;52.006;5.926;2023-06-05T06:31:48;8.98;;;4.40;;
70908;SDS011;58554;52.006;5.926;2023-06-05T06:34:17;8.33;;;4.27;;
70908;SDS011;58554;52.006;5.926;2023-06-05T06:36:43;9.77;;;4.27;;
70908;SDS011;58554;52.006;5.926;2023-06-05T06:39:10;8.88;;;4.25;;
70908;SDS011;58554;52.006;5.926;2023-06-05T06:41:37;8.07;;;4.18;;
70908;SDS011;58554;52.006;5.926;2023-06-05T06:44:04;13.33;;;5.10;;
70908;SDS011;58554;52.006;5.926;2023-06-05T06:46:31;10.40;;;4.77;;
70908;SDS011;58554;52.006;5.926;2023-06-05T06:49:00;10.45;;;4.72;;
70908;SDS011;58554;52.006;5.926;2023-06-05T06:51:27;10.10;;;4.57;;
70908;SDS011;58554;52.006;5.926;2023-06-05T06:53:53;9.83;;;4.70;;
70908;SDS011;58554;52.006;5.926;2023-06-05T06:56:20;7.75;;;4.03;;
70908;SDS011;58554;52.006;5.926;2023-06-05T06:58:47;9.63;;;4.27;;
70908;SDS011;58554;52.006;5.926;2023-06-05T07:01:14;7.60;;;4.10;;
70908;SDS011;58554;52.006;5.926;2023-06-05T07:03:41;9.70;;;4.27;;
70908;SDS011;58554;52.006;5.926;2023-06-05T07:06:11;8.27;;;3.90;;
70908;SDS011;58554;52.006;5.926;2023-06-05T07:08:38;10.53;;;4.27;;
70908;SDS011;58554;52.006;5.926;2023-06-05T07:11:04;8.07;;;3.97;;
70908;SDS011;58554;52.006;5.926;2023-06-05T07:13:31;8.97;;;4.03;;
70908;SDS011;58554;52.006;5.926;2023-06-05T07:15:57;8.35;;;4.05;;
70908;SDS011;58554;52.006;5.926;2023-06-05T07:18:24;9.43;;;4.90;;
70908;SDS011;58554;52.006;5.926;2023-06-05T07:20:50;9.87;;;4.37;;
70908;SDS011;58554;52.006;5.926;2023-06-05T07:23:20;11.55;;;4.72;;
70908;SDS011;58554;52.006;5.926;2023-06-05T07:25:46;7.95;;;3.75;;
70908;SDS011;58554;52.006;5.926;2023-06-05T07:28:13;8.57;;;4.03;;
70908;SDS011;58554;52.006;5.926;2023-06-05T07:30:39;9.98;;;4.30;;
70908;SDS011;58554;52.006;5.926;2023-06-05T07:33:06;7.23;;;4.10;;
70908;SDS011;58554;52.006;5.926;2023-06-05T07:35:32;9.15;;;3.78;;
70908;SDS011;58554;52.006;5.926;2023-06-05T07:37:59;12.97;;;4.30;;
70908;SDS011;58554;52.006;5.926;2023-06-05T07:40:28;7.30;;;4.03;;
70908;SDS011;58554;52.006;5.926;2023-06-05T07:42:54;10.67;;;4.43;;
70908;SDS011;58554;52.006;5.926;2023-06-05T07:45:21;9.55;;;4.13;;
70908;SDS011;58554;52.006;5.926;2023-06-05T07:47:47;9.07;;;3.77;;
70908;SDS011;58554;52.006;5.926;2023-06-05T07:50:14;10.52;;;4.20;;
70908;SDS011;58554;52.006;5.926;2023-06-05T07:52:40;9.50;;;4.53;;
70908;SDS011;58554;52.006;5.926;2023-06-05T07:55:08;7.70;;;3.80;;
70908;SDS011;58554;52.006;5.926;2023-06-05T07:57:37;10.35;;;4.10;;
70908;SDS011;58554;52.006;5.926;2023-06-05T08:00:04;10.63;;;4.40;;
70908;SDS011;58554;52.006;5.926;2023-06-05T08:02:35;8.15;;;3.95;;
70908;SDS011;58554;52.006;5.926;2023-06-05T08:05:01;12.20;;;4.87;;
70908;SDS011;58554;52.006;5.926;2023-06-05T08:07:28;8.82;;;3.63;;
70908;SDS011;58554;52.006;5.926;2023-06-05T08:09:55;7.20;;;3.80;;
70908;SDS011;58554;52.006;5.926;2023-06-05T08:12:21;8.07;;;3.87;;
70908;SDS011;58554;52.006;5.926;2023-06-05T08:14:50;8.70;;;4.23;;
70908;SDS011;58554;52.006;5.926;2023-06-05T08:17:17;8.37;;;4.10;;
70908;SDS011;58554;52.006;5.926;2023-06-05T08:19:43;7.90;;;4.00;;
70908;SDS011;58554;52.006;5.926;2023-06-05T08:22:10;9.37;;;4.33;;
70908;SDS011;58554;52.006;5.926;2023-06-05T08:24:37;8.33;;;4.30;;
70908;SDS011;58554;52.006;5.926;2023-06-05T08:27:03;8.33;;;4.50;;
70908;SDS011;58554;52.006;5.926;2023-06-05T08:29:30;10.00;;;4.33;;
70908;SDS011;58554;52.006;5.926;2023-06-05T08:31:59;8.10;;;4.18;;
70908;SDS011;58554;52.006;5.926;2023-06-05T08:34:26;7.95;;;4.13;;
70908;SDS011;58554;52.006;5.926;2023-06-05T08:36:52;9.77;;;4.23;;
70908;SDS011;58554;52.006;5.926;2023-06-05T08:39:19;8.73;;;4.30;;
70908;SDS011;58554;52.006;5.926;2023-06-05T08:41:46;8.33;;;4.33;;
70908;SDS011;58554;52.006;5.926;2023-06-05T08:44:17;9.10;;;4.60;;
70908;SDS011;58554;52.006;5.926;2023-06-05T08:46:44;8.80;;;4.20;;
70908;SDS011;58554;52.006;5.926;2023-06-05T08:49:16;8.43;;;4.17;;
70908;SDS011;58554;52.006;5.926;2023-06-05T08:51:48;9.05;;;4.13;;
70908;SDS011;58554;52.006;5.926;2023-06-05T08:54:16;7.78;;;4.25;;
70908;SDS011;58554;52.006;5.926;2023-06-05T08:56:45;9.33;;;4.43;;
70908;SDS011;58554;52.006;5.926;2023-06-05T08:59:13;8.95;;;4.50;;
70908;SDS011;58554;52.006;5.926;2023-06-05T09:01:40;9.63;;;4.38;;
70908;SDS011;58554;52.006;5.926;2023-06-05T09:04:06;9.47;;;4.60;;
70908;SDS011;58554;52.006;5.926;2023-06-05T09:06:36;10.13;;;4.68;;
70908;SDS011;58554;52.006;5.926;2023-06-05T09:09:02;7.93;;;4.03;;
70908;SDS011;58554;52.006;5.926;2023-06-05T09:11:29;10.40;;;4.50;;
70908;SDS011;58554;52.006;5.926;2023-06-05T09:13:58;8.20;;;4.10;;
70908;SDS011;58554;52.006;5.926;2023-06-05T09:16:33;8.83;;;4.13;;
70908;SDS011;58554;52.006;5.926;2023-06-05T09:19:01;11.50;;;4.65;;
70908;SDS011;58554;52.006;5.926;2023-06-05T09:21:28;8.83;;;4.40;;
70908;SDS011;58554;52.006;5.926;2023-06-05T09:26:46;8.38;;;4.40;;
70908;SDS011;58554;52.006;5.926;2023-06-05T09:29:20;9.23;;;4.63;;
70908;SDS011;58554;52.006;5.926;2023-06-05T09:31:49;7.73;;;4.30;;
70908;SDS011;58554;52.006;5.926;2023-06-05T09:34:21;9.07;;;4.47;;
70908;SDS011;58554;52.006;5.926;2023-06-05T09:36:49;9.57;;;4.20;;
70908;SDS011;58554;52.006;5.926;2023-06-05T09:39:19;9.43;;;4.15;;
70908;SDS011;58554;52.006;5.926;2023-06-05T09:41:46;7.37;;;3.93;;
70908;SDS011;58554;52.006;5.926;2023-06-05T09:44:14;7.90;;;3.90;;
70908;SDS011;58554;52.006;5.926;2023-06-05T09:46:49;9.37;;;4.07;;
70908;SDS011;58554;52.006;5.926;2023-06-05T09:49:18;8.65;;;3.85;;
70908;SDS011;58554;52.006;5.926;2023-06-05T09:51:46;8.83;;;4.50;;
70908;SDS011;58554;52.006;5.926;2023-06-05T09:54:13;7.32;;;4.35;;
70908;SDS011;58554;52.006;5.926;2023-06-05T09:56:43;8.00;;;4.27;;
70908;SDS011;58554;52.006;5.926;2023-06-05T09:59:16;9.98;;;4.43;;
70908;SDS011;58554;52.006;5.926;2023-06-05T10:01:46;8.77;;;4.53;;
70908;SDS011;58554;52.006;5.926;2023-06-05T10:04:16;7.53;;;4.10;;
70908;SDS011;58554;52.006;5.926;2023-06-05T10:06:48;9.32;;;4.45;;
70908;SDS011;58554;52.006;5.926;2023-06-05T10:09:17;8.50;;;4.20;;
70908;SDS011;58554;52.006;5.926;2023-06-05T10:11:46;7.47;;;4.10;;
70908;SDS011;58554;52.006;5.926;2023-06-05T10:14:15;7.93;;;4.17;;
70908;SDS011;58554;52.006;5.926;2023-06-05T10:16:43;9.40;;;4.20;;
70908;SDS011;58554;52.006;5.926;2023-06-05T10:19:15;7.53;;;4.30;;
70908;SDS011;58554;52.006;5.926;2023-06-05T10:21:43;8.57;;;4.25;;
70908;SDS011;58554;52.006;5.926;2023-06-05T10:24:13;7.90;;;4.30;;
70908;SDS011;58554;52.006;5.926;2023-06-05T10:26:54;7.03;;;4.10;;
70908;SDS011;58554;52.006;5.926;2023-06-05T10:29:55;10.00;;;3.90;;
70908;SDS011;58554;52.006;5.926;2023-06-05T10:33:16;7.45;;;4.20;;
70908;SDS011;58554;52.006;5.926;2023-06-05T10:35:59;7.73;;;3.97;;
70908;SDS011;58554;52.006;5.926;2023-06-05T10:38:42;7.63;;;4.50;;
70908;SDS011;58554;52.006;5.926;2023-06-05T10:41:10;8.43;;;4.32;;
70908;SDS011;58554;52.006;5.926;2023-06-05T10:43:48;7.00;;;3.83;;
70908;SDS011;58554;52.006;5.926;2023-06-05T10:49:06;8.40;;;4.03;;
70908;SDS011;58554;52.006;5.926;2023-06-05T10:51:38;7.20;;;4.23;;
70908;SDS011;58554;52.006;5.926;2023-06-05T10:54:06;8.20;;;4.30;;
70908;SDS011;58554;52.006;5.926;2023-06-05T10:59:25;7.73;;;3.93;;
70908;SDS011;58554;52.006;5.926;2023-06-05T11:05:03;8.20;;;4.50;;
70908;SDS011;58554;52.006;5.926;2023-06-05T11:07:31;6.90;;;3.63;;
70908;SDS011;58554;52.006;5.926;2023-06-05T11:10:05;7.43;;;3.73;;
70908;SDS011;58554;52.006;5.926;2023-06-05T11:12:53;7.67;;;3.80;;
70908;SDS011;58554;52.006;5.926;2023-06-05T11:15:39;6.97;;;3.70;;
70908;SDS011;58554;52.006;5.926;2023-06-05T11:20:55;6.50;;;3.93;;
70908;SDS011;58554;52.006;5.926;2023-06-05T11:23:22;7.38;;;3.63;;
70908;SDS011;58554;52.006;5.926;2023-06-05T11:25:49;8.10;;;4.17;;
70908;SDS011;58554;52.006;5.926;2023-06-05T11:28:36;6.97;;;3.42;;
70908;SDS011;58554;52.006;5.926;2023-06-05T11:31:07;7.23;;;3.53;;
70908;SDS011;58554;52.006;5.926;2023-06-05T11:33:34;8.13;;;3.42;;
70908;SDS011;58554;52.006;5.926;2023-06-05T11:36:03;8.80;;;3.65;;
70908;SDS011;58554;52.006;5.926;2023-06-05T11:38:32;8.17;;;3.70;;
70908;SDS011;58554;52.006;5.926;2023-06-05T11:40:59;7.50;;;3.50;;
70908;SDS011;58554;52.006;5.926;2023-06-05T11:43:31;6.05;;;3.78;;
70908;SDS011;58554;52.006;5.926;2023-06-05T11:45:58;7.45;;;3.55;;
70908;SDS011;58554;52.006;5.926;2023-06-05T11:48:29;8.17;;;4.13;;
70908;SDS011;58554;52.006;5.926;2023-06-05T11:50:57;9.70;;;3.37;;
70908;SDS011;58554;52.006;5.926;2023-06-05T11:53:25;7.50;;;3.67;;
70908;SDS011;58554;52.006;5.926;2023-06-05T11:55:54;6.70;;;3.58;;
70908;SDS011;58554;52.006;5.926;2023-06-05T11:58:22;6.10;;;3.80;;
70908;SDS011;58554;52.006;5.926;2023-06-05T12:00:50;6.57;;;3.57;;
70908;SDS011;58554;52.006;5.926;2023-06-05T12:03:18;6.93;;;3.37;;
70908;SDS011;58554;52.006;5.926;2023-06-05T12:05:48;6.67;;;3.57;;
70908;SDS011;58554;52.006;5.926;2023-06-05T12:08:21;5.57;;;3.47;;
70908;SDS011;58554;52.006;5.926;2023-06-05T12:10:47;6.77;;;4.00;;
70908;SDS011;58554;52.006;5.926;2023-06-05T12:13:15;6.23;;;3.53;;
70908;SDS011;58554;52.006;5.926;2023-06-05T12:15:42;6.40;;;3.73;;
70908;SDS011;58554;52.006;5.926;2023-06-05T12:18:08;6.65;;;3.60;;
70908;SDS011;58554;52.006;5.926;2023-06-05T12:20:37;6.10;;;3.63;;
70908;SDS011;58554;52.006;5.926;2023-06-05T12:23:07;6.20;;;3.53;;
70908;SDS011;58554;52.006;5.926;2023-06-05T12:25:42;5.43;;;3.70;;
70908;SDS011;58554;52.006;5.926;2023-06-05T12:28:17;5.90;;;3.87;;
70908;SDS011;58554;52.006;5.926;2023-06-05T12:30:44;6.37;;;3.27;;
70908;SDS011;58554;52.006;5.926;2023-06-05T12:33:11;7.00;;;3.70;;
70908;SDS011;58554;52.006;5.926;2023-06-05T12:35:37;6.73;;;3.70;;
70908;SDS011;58554;52.006;5.926;2023-06-05T12:38:07;5.77;;;3.33;;
70908;SDS011;58554;52.006;5.926;2023-06-05T12:40:33;7.73;;;3.80;;
70908;SDS011;58554;52.006;5.926;2023-06-05T12:42:59;6.32;;;3.65;;
70908;SDS011;58554;52.006;5.926;2023-06-05T12:45:26;5.20;;;3.40;;
70908;SDS011;58554;52.006;5.926;2023-06-05T12:47:53;6.67;;;3.90;;
70908;SDS011;58554;52.006;5.926;2023-06-05T12:50:19;6.88;;;3.22;;
70908;SDS011;58554;52.006;5.926;2023-06-05T12:52:46;5.90;;;3.50;;
70908;SDS011;58554;52.006;5.926;2023-06-05T12:55:16;7.30;;;3.50;;
70908;SDS011;58554;52.006;5.926;2023-06-05T12:57:42;6.77;;;3.47;;
70908;SDS011;58554;52.006;5.926;2023-06-05T13:00:09;6.00;;;3.65;;
70908;SDS011;58554;52.006;5.926;2023-06-05T13:02:37;7.78;;;3.30;;
70908;SDS011;58554;52.006;5.926;2023-06-05T13:05:04;6.27;;;3.57;;
70908;SDS011;58554;52.006;5.926;2023-06-05T13:07:31;7.60;;;3.67;;
70908;SDS011;58554;52.006;5.926;2023-06-05T13:09:58;6.10;;;3.40;;
70908;SDS011;58554;52.006;5.926;2023-06-05T13:12:27;8.73;;;3.43;;
70908;SDS011;58554;52.006;5.926;2023-06-05T13:14:53;7.23;;;3.70;;
70908;SDS011;58554;52.006;5.926;2023-06-05T13:17:20;5.57;;;3.43;;
70908;SDS011;58554;52.006;5.926;2023-06-05T13:19:46;8.20;;;3.50;;
70908;SDS011;58554;52.006;5.926;2023-06-05T13:22:13;6.07;;;3.67;;
70908;SDS011;58554;52.006;5.926;2023-06-05T13:24:39;6.50;;;3.40;;
70908;SDS011;58554;52.006;5.926;2023-06-05T13:27:06;5.78;;;3.55;;
70908;SDS011;58554;52.006;5.926;2023-06-05T13:29:35;6.23;;;3.00;;
70908;SDS011;58554;52.006;5.926;2023-06-05T13:32:02;6.22;;;3.60;;
70908;SDS011;58554;52.006;5.926;2023-06-05T13:34:29;7.70;;;3.50;;
70908;SDS011;58554;52.006;5.926;2023-06-05T13:36:56;4.97;;;3.35;;
70908;SDS011;58554;52.006;5.926;2023-06-05T13:39:22;6.57;;;3.55;;
70908;SDS011;58554;52.006;5.926;2023-06-05T13:41:49;6.03;;;3.40;;
70908;SDS011;58554;52.006;5.926;2023-06-05T13:44:15;5.07;;;3.33;;
70908;SDS011;58554;52.006;5.926;2023-06-05T13:46:45;5.20;;;3.10;;
70908;SDS011;58554;52.006;5.926;2023-06-05T13:49:11;6.22;;;3.53;;
70908;SDS011;58554;52.006;5.926;2023-06-05T13:51:38;5.67;;;3.50;;
70908;SDS011;58554;52.006;5.926;2023-06-05T13:54:04;4.67;;;3.17;;
70908;SDS011;58554;52.006;5.926;2023-06-05T13:56:31;5.75;;;3.17;;
70908;SDS011;58554;52.006;5.926;2023-06-05T13:58:57;6.03;;;3.50;;
70908;SDS011;58554;52.006;5.926;2023-06-05T14:01:24;4.82;;;3.38;;
70908;SDS011;58554;52.006;5.926;2023-06-05T14:03:53;4.95;;;3.40;;
70908;SDS011;58554;52.006;5.926;2023-06-05T14:06:20;5.40;;;3.20;;
70908;SDS011;58554;52.006;5.926;2023-06-05T14:08:46;8.90;;;3.20;;
70908;SDS011;58554;52.006;5.926;2023-06-05T14:11:13;5.83;;;3.23;;
70908;SDS011;58554;52.006;5.926;2023-06-05T14:13:39;4.47;;;3.10;;
70908;SDS011;58554;52.006;5.926;2023-06-05T14:16:07;4.97;;;3.03;;
70908;SDS011;58554;52.006;5.926;2023-06-05T14:18:34;5.60;;;3.17;;
70908;SDS011;58554;52.006;5.926;2023-06-05T14:21:04;5.43;;;2.97;;
70908;SDS011;58554;52.006;5.926;2023-06-05T14:23:32;6.80;;;3.00;;
70908;SDS011;58554;52.006;5.926;2023-06-05T14:25:59;4.85;;;2.92;;
70908;SDS011;58554;52.006;5.926;2023-06-05T14:28:26;6.60;;;3.67;;
70908;SDS011;58554;52.006;5.926;2023-06-05T14:30:52;5.43;;;3.38;;
70908;SDS011;58554;52.006;5.926;2023-06-05T14:33:18;9.85;;;3.33;;
70908;SDS011;58554;52.006;5.926;2023-06-05T14:35:45;6.43;;;3.30;;
70908;SDS011;58554;52.006;5.926;2023-06-05T14:38:14;4.50;;;3.10;;
70908;SDS011;58554;52.006;5.926;2023-06-05T14:40:41;5.07;;;3.10;;
70908;SDS011;58554;52.006;5.926;2023-06-05T14:43:07;6.03;;;3.53;;
70908;SDS011;58554;52.006;5.926;2023-06-05T14:45:34;5.87;;;2.87;;
70908;SDS011;58554;52.006;5.926;2023-06-05T14:48:00;5.03;;;3.00;;
70908;SDS011;58554;52.006;5.926;2023-06-05T14:50:27;7.25;;;3.08;;
70908;SDS011;58554;52.006;5.926;2023-06-05T14:52:53;5.60;;;3.10;;
70908;SDS011;58554;52.006;5.926;2023-06-05T14:55:23;6.20;;;3.60;;
70908;SDS011;58554;52.006;5.926;2023-06-05T14:57:49;4.23;;;2.93;;
70908;SDS011;58554;52.006;5.926;2023-06-05T15:00:16;5.30;;;3.15;;
70908;SDS011;58554;52.006;5.926;2023-06-05T15:02:44;5.38;;;2.90;;
70908;SDS011;58554;52.006;5.926;2023-06-05T15:05:10;4.57;;;3.17;;